createdAt,value
2023-02-04T00:00:58.712Z,2.92
2023-02-04T00:03:47.892Z,2.80
2023-02-04T00:06:35.549Z,3.28
2023-02-04T00:09:22.837Z,3.17
2023-02-04T00:12:11.132Z,2.55
2023-02-04T00:14:59.092Z,3.75
2023-02-04T00:17:47.399Z,2.97
2023-02-04T00:20:36.747Z,2.83
2023-02-04T00:23:24.860Z,3.47
2023-02-04T00:26:14.940Z,3.03
2023-02-04T00:29:02.789Z,3.17
2023-02-04T00:31:50.165Z,2.78
2023-02-04T00:34:37.851Z,2.83
2023-02-04T00:37:28.226Z,2.88
2023-02-04T00:40:16.350Z,3.60
2023-02-04T00:43:04.217Z,2.90
2023-02-04T00:45:51.705Z,2.97
2023-02-04T00:48:39.337Z,2.85
2023-02-04T00:51:26.898Z,2.85
2023-02-04T00:54:16.721Z,2.80
2023-02-04T00:57:04.643Z,2.63
2023-02-04T00:59:52.425Z,2.85
2023-02-04T01:02:40.779Z,2.97
2023-02-04T01:05:28.992Z,2.70
2023-02-04T01:08:16.338Z,2.50
2023-02-04T01:11:05.347Z,2.88
2023-02-04T01:13:54.386Z,2.50
2023-02-04T01:16:41.821Z,2.50
2023-02-04T01:19:29.237Z,2.70
2023-02-04T01:22:16.667Z,2.47
2023-02-04T01:25:04.493Z,2.95
2023-02-04T01:27:53.438Z,2.00
2023-02-04T01:30:40.956Z,2.45
2023-02-04T01:33:28.255Z,2.80
2023-02-04T01:36:21.507Z,2.63
2023-02-04T01:39:11.401Z,2.65
2023-02-04T01:42:01.033Z,2.33
2023-02-04T01:44:54.554Z,2.67
2023-02-04T01:47:42.608Z,2.25
2023-02-04T01:50:31.138Z,2.35
2023-02-04T01:53:24.245Z,2.28
2023-02-04T01:56:21.059Z,2.63
2023-02-04T01:59:14.535Z,2.30
2023-02-04T02:02:03.707Z,2.17
2023-02-04T02:04:51.446Z,2.75
2023-02-04T02:07:39.074Z,2.45
2023-02-04T02:10:28.229Z,2.75
2023-02-04T02:13:19.795Z,2.70
2023-02-04T02:16:07.824Z,2.95
2023-02-04T02:18:57.755Z,2.80
2023-02-04T02:21:54.469Z,2.78
2023-02-04T02:24:43.610Z,2.75
2023-02-04T02:27:31.776Z,2.45
2023-02-04T02:30:20.393Z,3.13
2023-02-04T02:33:09.113Z,2.30
2023-02-04T02:35:56.943Z,2.20
2023-02-04T02:38:44.686Z,2.42
2023-02-04T02:41:33.890Z,3.28
2023-02-04T02:44:21.571Z,2.40
2023-02-04T02:47:15.937Z,2.85
2023-02-04T02:50:03.506Z,2.42
2023-02-04T02:52:54.318Z,2.72
2023-02-04T02:55:42.879Z,2.33
2023-02-04T02:58:36.196Z,2.60
2023-02-04T03:01:23.916Z,2.50
2023-02-04T03:04:13.227Z,2.47
2023-02-04T03:07:12.175Z,3.13
2023-02-04T03:10:00.249Z,2.50
2023-02-04T03:12:49.009Z,2.63
2023-02-04T03:15:41.328Z,2.60
2023-02-04T03:18:29.235Z,2.60
2023-02-04T03:21:16.754Z,2.05
2023-02-04T03:24:08.080Z,2.22
2023-02-04T03:26:56.239Z,2.92
2023-02-04T03:29:47.974Z,2.47
2023-02-04T03:32:37.378Z,2.47
2023-02-04T03:35:24.764Z,2.10
2023-02-04T03:38:12.171Z,1.80
2023-02-04T03:41:06.312Z,2.10
2023-02-04T03:43:57.031Z,2.03
2023-02-04T03:46:44.591Z,2.55
2023-02-04T03:49:35.397Z,2.42
2023-02-04T03:52:23.346Z,1.95
2023-02-04T03:55:11.776Z,2.33
2023-02-04T03:57:59.745Z,2.05
2023-02-04T04:00:47.490Z,2.72
2023-02-04T04:03:35.175Z,2.17
2023-02-04T04:06:23.951Z,2.17
2023-02-04T04:09:11.504Z,2.30
2023-02-04T04:11:59.074Z,1.98
2023-02-04T04:14:46.787Z,2.35
2023-02-04T04:17:34.395Z,2.20
2023-02-04T04:20:25.434Z,2.20
2023-02-04T04:23:14.336Z,2.42
2023-02-04T04:26:01.992Z,2.67
2023-02-04T04:28:49.816Z,1.85
2023-02-04T04:31:37.605Z,2.17
2023-02-04T04:34:25.579Z,2.30
2023-02-04T04:37:13.260Z,2.15
2023-02-04T04:40:03.059Z,2.17
2023-02-04T04:42:50.601Z,2.25
2023-02-04T04:45:38.103Z,1.75
2023-02-04T04:48:25.633Z,2.30
2023-02-04T04:51:12.966Z,2.28
2023-02-04T04:54:01.072Z,2.30
2023-02-04T04:56:50.266Z,1.90
2023-02-04T04:59:38.098Z,2.70
2023-02-04T05:02:25.693Z,2.25
2023-02-04T05:05:15.860Z,2.28
2023-02-04T05:08:03.543Z,2.85
2023-02-04T05:10:51.149Z,2.05
2023-02-04T05:13:40.040Z,2.38
2023-02-04T05:16:27.938Z,2.40
2023-02-04T05:19:15.512Z,1.90
2023-02-04T05:22:03.214Z,2.22
2023-02-04T05:24:50.516Z,2.50
2023-02-04T05:27:37.956Z,2.60
2023-02-04T05:30:26.940Z,2.00
2023-02-04T05:33:14.820Z,1.90
2023-02-04T05:36:02.390Z,1.92
2023-02-04T05:38:49.996Z,2.38
2023-02-04T05:41:37.681Z,2.65
2023-02-04T05:44:27.257Z,2.20
2023-02-04T05:47:16.631Z,1.90
2023-02-04T05:50:04.499Z,2.03
2023-02-04T05:52:52.223Z,2.55
2023-02-04T05:55:39.777Z,2.20
2023-02-04T05:58:33.188Z,2.50
2023-02-04T06:01:20.974Z,1.80
2023-02-04T06:04:09.859Z,2.00
2023-02-04T06:06:57.612Z,2.13
2023-02-04T06:09:45.112Z,1.90
2023-02-04T06:12:32.684Z,1.80
2023-02-04T06:15:20.543Z,1.73
2023-02-04T06:18:08.480Z,1.80
2023-02-04T06:20:57.702Z,1.80
2023-02-04T06:23:45.317Z,1.92
2023-02-04T06:26:32.815Z,1.90
2023-02-04T06:29:20.416Z,1.58
2023-02-04T06:32:08.086Z,1.70
2023-02-04T06:34:55.544Z,1.48
2023-02-04T06:37:45.664Z,1.20
2023-02-04T06:40:33.585Z,1.35
2023-02-04T06:43:21.691Z,1.38
2023-02-04T06:46:09.228Z,1.23
2023-02-04T06:48:57.314Z,1.15
2023-02-04T06:51:44.777Z,0.80
2023-02-04T06:54:33.656Z,1.10
2023-02-04T06:57:21.460Z,0.90
2023-02-04T07:00:12.929Z,1.15
2023-02-04T07:03:00.781Z,1.00
2023-02-04T07:05:48.372Z,1.00
2023-02-04T07:08:35.892Z,1.10
2023-02-04T07:11:24.662Z,1.00
2023-02-04T07:14:12.264Z,1.10
2023-02-04T07:16:59.857Z,1.00
2023-02-04T07:19:47.375Z,1.13
2023-02-04T07:22:35.054Z,1.00
2023-02-04T07:25:22.422Z,1.00
2023-02-04T07:28:11.279Z,1.10
2023-02-04T07:30:59.052Z,1.10
2023-02-04T07:33:46.768Z,1.10
2023-02-04T07:36:34.301Z,1.20
2023-02-04T07:39:21.578Z,1.00
2023-02-04T07:42:09.091Z,1.10
2023-02-04T07:44:58.072Z,1.27
2023-02-04T07:47:45.594Z,1.10
2023-02-04T07:50:33.173Z,1.10
2023-02-04T07:53:20.888Z,1.10
2023-02-04T07:56:08.707Z,1.30
2023-02-04T07:58:56.509Z,1.00
2023-02-04T08:01:45.432Z,1.10
2023-02-04T08:04:33.134Z,1.40
2023-02-04T08:07:20.775Z,1.17
2023-02-04T08:10:11.360Z,1.30
2023-02-04T08:12:59.121Z,1.20
2023-02-04T08:15:46.672Z,1.20
2023-02-04T08:18:35.893Z,1.50
2023-02-04T08:21:23.717Z,1.40
2023-02-04T08:24:11.256Z,1.30
2023-02-04T08:26:59.374Z,1.38
2023-02-04T08:29:46.687Z,1.40
2023-02-04T08:32:34.354Z,1.20
2023-02-04T08:35:23.345Z,1.33
2023-02-04T08:38:11.001Z,1.38
2023-02-04T08:40:59.924Z,1.50
2023-02-04T08:43:47.724Z,1.30
2023-02-04T08:46:38.025Z,1.25
2023-02-04T08:49:25.675Z,1.25
2023-02-04T08:52:14.528Z,1.30
2023-02-04T08:55:02.160Z,2.88
2023-02-04T08:57:49.838Z,1.65
2023-02-04T09:00:37.072Z,1.73
2023-02-04T09:03:24.625Z,1.50
2023-02-04T09:06:13.395Z,1.50
2023-02-04T09:09:02.683Z,1.50
2023-02-04T09:11:50.096Z,1.58
2023-02-04T09:14:37.728Z,1.52
2023-02-04T09:17:25.232Z,1.70
2023-02-04T09:20:13.672Z,1.58
2023-02-04T09:23:02.355Z,1.77
2023-02-04T09:25:51.910Z,1.50
2023-02-04T09:28:40.162Z,1.27
2023-02-04T09:31:27.652Z,1.23
2023-02-04T09:34:15.182Z,1.40
2023-02-04T09:37:02.574Z,1.63
2023-02-04T09:39:50.266Z,1.50
2023-02-04T09:42:39.625Z,1.17
2023-02-04T09:45:30.856Z,1.48
2023-02-04T09:48:19.536Z,1.13
2023-02-04T09:51:09.474Z,1.20
2023-02-04T09:54:09.980Z,1.23
2023-02-04T09:56:59.378Z,1.10
2023-02-04T09:59:48.642Z,1.30
2023-02-04T10:02:36.927Z,1.30
2023-02-04T10:05:30.886Z,1.42
2023-02-04T10:08:21.562Z,3.83
2023-02-04T10:11:10.198Z,1.50
2023-02-04T10:13:57.988Z,1.60
2023-02-04T10:16:59.142Z,1.73
2023-02-04T10:19:47.646Z,1.63
2023-02-04T10:22:42.623Z,1.50
2023-02-04T10:25:30.318Z,1.30
2023-02-04T10:28:18.367Z,1.60
2023-02-04T10:31:08.408Z,1.35
2023-02-04T10:34:07.908Z,1.20
2023-02-04T10:36:57.946Z,1.10
2023-02-04T10:39:45.971Z,1.20
2023-02-04T10:42:34.078Z,1.17
2023-02-04T10:45:27.194Z,1.10
2023-02-04T10:48:19.968Z,1.10
2023-02-04T10:54:18.862Z,1.30
2023-02-04T10:57:19.465Z,1.30
2023-02-04T11:00:18.986Z,0.98
2023-02-04T11:03:12.921Z,0.95
2023-02-04T11:06:01.983Z,1.15
2023-02-04T11:08:54.605Z,1.10
2023-02-04T11:11:48.218Z,1.17
2023-02-04T11:14:35.631Z,1.30
2023-02-04T11:17:29.780Z,1.00
2023-02-04T11:20:33.979Z,1.00
2023-02-04T11:23:37.299Z,1.00
2023-02-04T11:26:37.715Z,1.67
2023-02-04T11:29:34.894Z,1.25
2023-02-04T11:32:34.818Z,1.40
2023-02-04T11:35:27.444Z,1.40
2023-02-04T11:38:29.313Z,2.72
2023-02-04T11:41:25.822Z,1.63
2023-02-04T11:44:16.849Z,1.80
2023-02-04T11:47:10.169Z,1.63
2023-02-04T11:50:04.197Z,2.15
2023-02-04T11:52:51.881Z,1.50
2023-02-04T11:55:49.280Z,2.13
2023-02-04T11:58:42.072Z,1.90
2023-02-04T12:01:35.326Z,2.50
2023-02-04T12:04:26.224Z,1.65
2023-02-04T12:07:22.702Z,1.40
2023-02-04T12:10:23.357Z,1.58
2023-02-04T12:13:19.078Z,1.20
2023-02-04T12:16:08.526Z,1.10
2023-02-04T12:18:57.403Z,1.30
2023-02-04T12:21:47.930Z,1.70
2023-02-04T12:24:35.660Z,1.50
2023-02-04T12:27:23.105Z,1.40
2023-02-04T12:30:13.496Z,1.50
2023-02-04T12:33:01.576Z,1.55
2023-02-04T12:35:52.082Z,1.45
2023-02-04T12:38:39.562Z,1.58
2023-02-04T12:41:27.171Z,1.60
2023-02-04T12:44:15.257Z,1.50
2023-02-04T12:47:02.933Z,1.10
2023-02-04T12:49:51.278Z,1.60
2023-02-04T12:52:40.432Z,1.25
2023-02-04T12:55:30.577Z,1.80
2023-02-04T12:58:18.958Z,1.50
2023-02-04T13:01:07.392Z,1.40
2023-02-04T13:03:55.415Z,1.60
2023-02-04T13:06:43.575Z,1.58
2023-02-04T13:09:33.972Z,1.67
2023-02-04T13:12:21.557Z,1.33
2023-02-04T13:15:10.825Z,1.40
2023-02-04T13:17:59.544Z,1.40
2023-02-04T13:20:48.157Z,1.38
2023-02-04T13:23:36.456Z,1.40
2023-02-04T13:26:26.301Z,1.35
2023-02-04T13:29:14.932Z,1.60
2023-02-04T13:32:02.740Z,1.35
2023-02-04T13:34:50.391Z,1.40
2023-02-04T13:37:38.598Z,1.52
2023-02-04T13:40:26.277Z,1.40
2023-02-04T13:43:15.041Z,1.40
2023-02-04T13:46:04.281Z,1.63
2023-02-04T13:48:51.789Z,1.50
2023-02-04T13:51:39.239Z,1.40
2023-02-04T13:54:26.933Z,1.30
2023-02-04T13:57:17.028Z,1.60
2023-02-04T14:00:09.710Z,1.65
2023-02-04T14:02:57.581Z,1.60
2023-02-04T14:05:45.217Z,1.58
2023-02-04T14:08:34.066Z,1.40
2023-02-04T14:11:22.605Z,1.38
2023-02-04T14:14:10.348Z,1.48
2023-02-04T14:17:00.531Z,1.60
2023-02-04T14:19:49.783Z,1.30
2023-02-04T14:22:39.452Z,1.30
2023-02-04T14:25:30.548Z,1.45
2023-02-04T14:28:19.315Z,1.10
2023-02-04T14:31:08.116Z,1.30
2023-02-04T14:33:58.625Z,1.30
2023-02-04T14:36:47.323Z,1.20
2023-02-04T14:39:36.023Z,1.20
2023-02-04T14:42:24.526Z,1.20
2023-02-04T14:45:14.968Z,1.60
2023-02-04T14:48:03.416Z,1.20
2023-02-04T14:50:53.062Z,1.30
2023-02-04T14:53:46.134Z,1.30
2023-02-04T14:56:39.171Z,1.48
2023-02-04T14:59:27.227Z,1.40
2023-02-04T15:02:16.145Z,1.52
2023-02-04T15:05:07.570Z,1.40
2023-02-04T15:07:57.243Z,1.30
2023-02-04T15:10:45.426Z,1.42
2023-02-04T15:13:33.486Z,1.40
2023-02-04T15:16:21.870Z,1.63
2023-02-04T15:19:09.593Z,1.50
2023-02-04T15:21:58.059Z,1.73
2023-02-04T15:24:49.995Z,1.50
2023-02-04T15:27:38.191Z,1.83
2023-02-04T15:30:25.597Z,1.55
2023-02-04T15:33:13.993Z,1.60
2023-02-04T15:36:02.084Z,1.60
2023-02-04T15:38:49.944Z,1.70
2023-02-04T15:41:39.131Z,1.60
2023-02-04T15:44:27.098Z,1.50
2023-02-04T15:47:14.802Z,1.50
2023-02-04T15:50:04.054Z,1.65
2023-02-04T15:52:51.708Z,1.80
2023-02-04T15:55:39.166Z,1.90
2023-02-04T15:58:28.131Z,1.60
2023-02-04T16:01:15.893Z,1.65
2023-02-04T16:04:03.459Z,1.52
2023-02-04T16:06:58.341Z,1.50
2023-02-04T16:09:46.610Z,1.65
2023-02-04T16:12:34.566Z,2.10
2023-02-04T16:15:23.876Z,2.58
2023-02-04T16:18:11.270Z,4.45
2023-02-04T16:20:59.741Z,6.20
2023-02-04T16:23:48.388Z,3.92
2023-02-04T16:26:35.875Z,3.38
2023-02-04T16:29:23.602Z,3.10
2023-02-04T16:32:12.610Z,2.78
2023-02-04T16:35:04.472Z,2.65
2023-02-04T16:37:51.886Z,3.15
2023-02-04T16:40:39.624Z,2.83
2023-02-04T16:43:27.499Z,2.70
2023-02-04T16:46:16.113Z,2.63
2023-02-04T16:49:06.042Z,2.83
2023-02-04T16:51:53.968Z,2.70
2023-02-04T16:54:47.295Z,2.63
2023-02-04T16:57:35.098Z,2.60
2023-02-04T17:00:23.725Z,2.70
2023-02-04T17:03:12.422Z,2.30
2023-02-04T17:06:01.306Z,2.00
2023-02-04T17:08:49.012Z,2.45
2023-02-04T17:11:37.454Z,2.53
2023-02-04T17:14:25.436Z,2.38
2023-02-04T17:17:13.104Z,2.80
2023-02-04T17:20:01.100Z,2.75
2023-02-04T17:22:50.574Z,2.72
2023-02-04T17:25:38.155Z,3.00
2023-02-04T17:28:26.181Z,3.03
2023-02-04T17:31:13.775Z,3.60
2023-02-04T17:34:03.077Z,3.58
2023-02-04T17:36:50.833Z,3.97
2023-02-04T17:39:39.963Z,4.40
2023-02-04T17:42:28.491Z,4.80
2023-02-04T17:45:16.477Z,4.70
2023-02-04T17:48:05.102Z,5.20
2023-02-04T17:50:53.281Z,5.78
2023-02-04T17:53:41.372Z,6.28
2023-02-04T17:56:30.468Z,6.07
2023-02-04T17:59:17.837Z,6.40
2023-02-04T18:02:24.371Z,7.15
2023-02-04T18:05:17.001Z,6.50
2023-02-04T18:08:16.170Z,6.78
2023-02-04T18:11:04.113Z,7.63
2023-02-04T18:13:53.248Z,7.47
2023-02-04T18:16:41.669Z,7.38
2023-02-04T18:19:36.970Z,7.43
2023-02-04T18:22:28.366Z,7.20
2023-02-04T18:25:21.780Z,7.22
2023-02-04T18:28:16.711Z,7.30
2023-02-04T18:31:29.920Z,7.55
2023-02-04T18:34:23.730Z,7.03
2023-02-04T18:37:29.835Z,7.05
2023-02-04T18:40:26.428Z,7.40
2023-02-04T18:43:30.600Z,7.75
2023-02-04T18:46:26.784Z,7.35
2023-02-04T18:49:26.803Z,7.13
2023-02-04T18:52:19.921Z,8.15
2023-02-04T18:55:24.814Z,7.88
2023-02-04T18:58:31.127Z,8.05
2023-02-04T19:01:27.509Z,7.47
2023-02-04T19:04:23.721Z,7.60
2023-02-04T19:07:17.198Z,7.57
2023-02-04T19:10:28.314Z,6.53
2023-02-04T19:13:22.111Z,7.15
2023-02-04T19:16:25.807Z,6.57
2023-02-04T19:19:38.451Z,6.22
2023-02-04T19:22:46.053Z,6.63
2023-02-04T19:25:36.169Z,6.50
2023-02-04T19:28:31.006Z,6.18
2023-02-04T19:31:19.501Z,6.80
2023-02-04T19:34:25.216Z,6.38
2023-02-04T19:37:24.528Z,5.47
2023-02-04T19:40:39.256Z,6.35
2023-02-04T19:43:36.921Z,5.60
2023-02-04T19:46:28.018Z,5.72
2023-02-04T19:49:24.168Z,5.22
2023-02-04T19:52:41.430Z,5.35
2023-02-04T19:55:58.640Z,5.70
2023-02-04T19:58:49.099Z,5.72
2023-02-04T20:01:46.282Z,5.07
2023-02-04T20:04:47.272Z,5.25
2023-02-04T20:07:40.779Z,5.25
2023-02-04T20:10:38.683Z,5.28
2023-02-04T20:13:32.666Z,5.13
2023-02-04T20:17:04.162Z,5.07
2023-02-04T20:20:08.204Z,5.70
2023-02-04T20:23:04.931Z,5.95
2023-02-04T20:26:02.193Z,6.40
2023-02-04T20:36:48.843Z,6.00
2023-02-04T20:39:52.399Z,6.45
2023-02-04T20:43:06.295Z,6.03
2023-02-04T20:46:57.395Z,7.35
2023-02-04T20:49:55.857Z,6.80
2023-02-04T20:53:37.297Z,7.53
2023-02-04T20:57:07.989Z,7.28
2023-02-04T21:00:07.268Z,8.00
2023-02-04T21:07:19.334Z,8.15
2023-02-04T21:13:57.247Z,10.32
2023-02-04T21:17:27.697Z,10.57
2023-02-04T21:20:19.757Z,9.82
2023-02-04T21:23:15.456Z,10.00
2023-02-04T21:26:37.042Z,11.15
2023-02-04T21:32:41.034Z,11.82
2023-02-04T21:35:30.769Z,12.27
2023-02-04T21:38:23.678Z,11.50
2023-02-04T21:41:18.979Z,12.25
2023-02-04T21:44:16.124Z,12.10
2023-02-04T21:47:08.330Z,12.25
2023-02-04T21:50:01.825Z,12.13
2023-02-04T21:53:11.468Z,12.35
2023-02-04T21:56:12.158Z,11.63
2023-02-04T21:59:01.352Z,12.25
2023-02-04T22:01:51.029Z,12.32
2023-02-04T22:04:48.019Z,12.88
2023-02-04T22:07:36.706Z,11.70
2023-02-04T22:10:32.297Z,12.95
2023-02-04T22:13:45.762Z,12.75
2023-02-04T22:16:57.955Z,11.80
2023-02-04T22:19:49.824Z,12.13
2023-02-04T22:22:39.117Z,11.85
2023-02-04T22:25:33.859Z,12.40
2023-02-04T22:28:51.820Z,12.32
2023-02-04T22:32:14.343Z,12.35
2023-02-04T22:35:17.427Z,12.55
2023-02-04T22:38:15.908Z,12.27
2023-02-04T22:41:21.628Z,12.07
2023-02-04T22:47:14.784Z,11.77
2023-02-04T22:50:06.217Z,12.80
2023-02-04T22:52:53.894Z,11.93
2023-02-04T22:55:45.660Z,11.75
2023-02-04T22:59:02.168Z,12.85
2023-02-04T23:01:54.211Z,12.02
2023-02-04T23:04:57.083Z,11.77
2023-02-04T23:07:45.003Z,12.00
2023-02-04T23:10:33.085Z,12.23
2023-02-04T23:13:20.943Z,12.50
2023-02-04T23:16:14.597Z,11.88
2023-02-04T23:19:16.127Z,11.77
2023-02-04T23:22:11.399Z,11.90
2023-02-04T23:25:04.208Z,12.32
2023-02-04T23:28:07.090Z,12.00
2023-02-04T23:30:57.227Z,12.32
2023-02-04T23:33:45.218Z,12.35
2023-02-04T23:36:36.387Z,12.65
2023-02-04T23:39:25.670Z,12.18
2023-02-04T23:42:13.875Z,12.38
2023-02-04T23:45:01.566Z,12.30
2023-02-04T23:47:49.271Z,12.30
2023-02-04T23:50:36.735Z,11.85
2023-02-04T23:53:24.554Z,12.43
2023-02-04T23:56:13.630Z,12.10
2023-02-04T23:59:01.160Z,11.95
